sensor_id;sensor_type;location;lat;lon;timestamp;P1;durP1;ratioP1;P2;durP2;ratioP2
45382;SDS011;42455;51.660;5.824;2023-09-08T00:04:50;14.0;;;13.0;;
45382;SDS011;42455;51.660;5.824;2023-09-08T00:09:56;15.0;;;14.0;;
45382;SDS011;42455;51.660;5.824;2023-09-08T00:15:03;15.5;;;14.0;;
45382;SDS011;42455;51.660;5.824;2023-09-08T00:20:09;16.0;;;14.0;;
45382;SDS011;42455;51.660;5.824;2023-09-08T00:25:15;15.5;;;14.0;;
45382;SDS011;42455;51.660;5.824;2023-09-08T00:30:21;16.0;;;15.0;;
45382;SDS011;42455;51.660;5.824;2023-09-08T00:35:27;16.0;;;14.0;;
45382;SDS011;42455;51.660;5.824;2023-09-08T00:40:34;15.0;;;14.0;;
45382;SDS011;42455;51.660;5.824;2023-09-08T00:45:42;15.0;;;14.0;;
45382;SDS011;42455;51.660;5.824;2023-09-08T00:50:46;15.0;;;13.0;;
45382;SDS011;42455;51.660;5.824;2023-09-08T00:55:52;15.0;;;13.0;;
45382;SDS011;42455;51.660;5.824;2023-09-08T01:00:58;15.0;;;13.0;;
45382;SDS011;42455;51.660;5.824;2023-09-08T01:06:05;14.0;;;13.0;;
45382;SDS011;42455;51.660;5.824;2023-09-08T01:11:11;15.0;;;13.0;;
45382;SDS011;42455;51.660;5.824;2023-09-08T01:16:17;15.0;;;13.0;;
45382;SDS011;42455;51.660;5.824;2023-09-08T01:22:23;15.0;;;13.0;;
45382;SDS011;42455;51.660;5.824;2023-09-08T01:26:49;14.0;;;12.5;;
45382;SDS011;42455;51.660;5.824;2023-09-08T01:31:35;14.0;;;12.0;;
45382;SDS011;42455;51.660;5.824;2023-09-08T01:36:41;15.0;;;13.0;;
45382;SDS011;42455;51.660;5.824;2023-09-08T01:41:47;14.0;;;13.0;;
45382;SDS011;42455;51.660;5.824;2023-09-08T01:46:53;14.0;;;13.0;;
45382;SDS011;42455;51.660;5.824;2023-09-08T01:52:00;14.0;;;13.0;;
45382;SDS011;42455;51.660;5.824;2023-09-08T01:57:06;14.0;;;13.0;;
45382;SDS011;42455;51.660;5.824;2023-09-08T02:02:12;14.5;;;13.0;;
45382;SDS011;42455;51.660;5.824;2023-09-08T02:07:18;18.0;;;13.0;;
45382;SDS011;42455;51.660;5.824;2023-09-08T02:12:24;15.0;;;13.0;;
45382;SDS011;42455;51.660;5.824;2023-09-08T02:17:31;14.0;;;12.0;;
45382;SDS011;42455;51.660;5.824;2023-09-08T02:22:37;19.0;;;13.0;;
45382;SDS011;42455;51.660;5.824;2023-09-08T02:27:43;14.0;;;13.0;;
45382;SDS011;42455;51.660;5.824;2023-09-08T02:32:49;15.0;;;13.0;;
45382;SDS011;42455;51.660;5.824;2023-09-08T02:37:55;14.0;;;13.0;;
45382;SDS011;42455;51.660;5.824;2023-09-08T02:43:02;14.0;;;13.0;;
45382;SDS011;42455;51.660;5.824;2023-09-08T02:48:08;15.0;;;14.0;;
45382;SDS011;42455;51.660;5.824;2023-09-08T02:53:14;16.0;;;14.0;;
45382;SDS011;42455;51.660;5.824;2023-09-08T02:58:20;15.0;;;14.0;;
45382;SDS011;42455;51.660;5.824;2023-09-08T03:03:27;16.0;;;14.0;;
45382;SDS011;42455;51.660;5.824;2023-09-08T03:08:33;14.0;;;13.0;;
45382;SDS011;42455;51.660;5.824;2023-09-08T03:13:39;16.5;;;15.0;;
45382;SDS011;42455;51.660;5.824;2023-09-08T03:18:45;16.0;;;14.0;;
45382;SDS011;42455;51.660;5.824;2023-09-08T03:23:51;15.5;;;13.0;;
45382;SDS011;42455;51.660;5.824;2023-09-08T03:28:58;16.0;;;14.0;;
45382;SDS011;42455;51.660;5.824;2023-09-08T03:34:04;16.0;;;15.0;;
45382;SDS011;42455;51.660;5.824;2023-09-08T03:44:16;15.0;;;13.0;;
45382;SDS011;42455;51.660;5.824;2023-09-08T03:49:22;15.0;;;13.0;;
45382;SDS011;42455;51.660;5.824;2023-09-08T03:54:29;15.0;;;14.0;;
45382;SDS011;42455;51.660;5.824;2023-09-08T03:59:35;15.0;;;14.0;;
45382;SDS011;42455;51.660;5.824;2023-09-08T04:04:41;18.0;;;14.0;;
45382;SDS011;42455;51.660;5.824;2023-09-08T04:09:47;16.0;;;14.0;;
45382;SDS011;42455;51.660;5.824;2023-09-08T04:14:53;14.0;;;13.0;;
45382;SDS011;42455;51.660;5.824;2023-09-08T04:20:00;16.0;;;14.0;;
45382;SDS011;42455;51.660;5.824;2023-09-08T04:25:06;15.5;;;14.0;;
45382;SDS011;42455;51.660;5.824;2023-09-08T04:30:12;15.5;;;14.0;;
45382;SDS011;42455;51.660;5.824;2023-09-08T04:40:24;14.5;;;13.0;;
45382;SDS011;42455;51.660;5.824;2023-09-08T04:45:31;15.0;;;13.0;;
45382;SDS011;42455;51.660;5.824;2023-09-08T04:50:37;15.0;;;13.0;;
45382;SDS011;42455;51.660;5.824;2023-09-08T05:00:49;15.0;;;13.0;;
45382;SDS011;42455;51.660;5.824;2023-09-08T05:05:55;15.0;;;13.0;;
45382;SDS011;42455;51.660;5.824;2023-09-08T05:11:00;15.0;;;14.0;;
45382;SDS011;42455;51.660;5.824;2023-09-08T05:16:12;15.0;;;14.0;;
45382;SDS011;42455;51.660;5.824;2023-09-08T05:21:24;15.0;;;14.0;;
45382;SDS011;42455;51.660;5.824;2023-09-08T05:26:37;16.0;;;14.0;;
45382;SDS011;42455;51.660;5.824;2023-09-08T05:31:49;15.5;;;14.0;;
45382;SDS011;42455;51.660;5.824;2023-09-08T05:37:00;16.0;;;14.0;;
45382;SDS011;42455;51.660;5.824;2023-09-08T05:42:07;16.0;;;14.0;;
45382;SDS011;42455;51.660;5.824;2023-09-08T05:47:13;17.0;;;15.0;;
45382;SDS011;42455;51.660;5.824;2023-09-08T05:52:19;17.0;;;16.0;;
45382;SDS011;42455;51.660;5.824;2023-09-08T05:57:25;18.0;;;16.0;;
45382;SDS011;42455;51.660;5.824;2023-09-08T06:02:31;17.5;;;16.0;;
45382;SDS011;42455;51.660;5.824;2023-09-08T06:07:38;17.0;;;15.5;;
45382;SDS011;42455;51.660;5.824;2023-09-08T06:12:44;18.0;;;17.0;;
45382;SDS011;42455;51.660;5.824;2023-09-08T06:17:50;18.0;;;16.0;;
45382;SDS011;42455;51.660;5.824;2023-09-08T06:22:56;18.0;;;16.0;;
45382;SDS011;42455;51.660;5.824;2023-09-08T06:28:03;18.0;;;16.0;;
45382;SDS011;42455;51.660;5.824;2023-09-08T06:33:09;17.5;;;16.0;;
45382;SDS011;42455;51.660;5.824;2023-09-08T06:38:15;18.0;;;16.0;;
45382;SDS011;42455;51.660;5.824;2023-09-08T06:43:21;18.0;;;17.0;;
45382;SDS011;42455;51.660;5.824;2023-09-08T06:48:28;18.0;;;17.0;;
45382;SDS011;42455;51.660;5.824;2023-09-08T06:53:34;18.0;;;16.0;;
45382;SDS011;42455;51.660;5.824;2023-09-08T06:58:40;17.0;;;16.0;;
45382;SDS011;42455;51.660;5.824;2023-09-08T07:03:46;17.0;;;16.0;;
45382;SDS011;42455;51.660;5.824;2023-09-08T07:08:52;18.0;;;16.0;;
45382;SDS011;42455;51.660;5.824;2023-09-08T07:13:58;18.0;;;17.0;;
45382;SDS011;42455;51.660;5.824;2023-09-08T07:19:04;19.0;;;17.0;;
45382;SDS011;42455;51.660;5.824;2023-09-08T07:24:09;19.0;;;17.0;;
45382;SDS011;42455;51.660;5.824;2023-09-08T07:29:15;18.0;;;16.0;;
45382;SDS011;42455;51.660;5.824;2023-09-08T07:34:21;18.0;;;16.5;;
45382;SDS011;42455;51.660;5.824;2023-09-08T07:39:27;19.0;;;17.0;;
45382;SDS011;42455;51.660;5.824;2023-09-08T07:44:34;18.0;;;17.0;;
45382;SDS011;42455;51.660;5.824;2023-09-08T07:49:44;19.0;;;17.0;;
45382;SDS011;42455;51.660;5.824;2023-09-08T07:54:46;18.0;;;16.0;;
45382;SDS011;42455;51.660;5.824;2023-09-08T07:59:52;18.0;;;17.0;;
45382;SDS011;42455;51.660;5.824;2023-09-08T08:04:59;18.0;;;17.0;;
45382;SDS011;42455;51.660;5.824;2023-09-08T08:10:06;19.0;;;17.0;;
45382;SDS011;42455;51.660;5.824;2023-09-08T08:15:11;19.0;;;17.0;;
45382;SDS011;42455;51.660;5.824;2023-09-08T08:20:17;19.0;;;17.0;;
45382;SDS011;42455;51.660;5.824;2023-09-08T08:25:23;18.0;;;16.0;;
45382;SDS011;42455;51.660;5.824;2023-09-08T08:30:30;18.0;;;16.0;;
45382;SDS011;42455;51.660;5.824;2023-09-08T08:35:36;18.0;;;17.0;;
45382;SDS011;42455;51.660;5.824;2023-09-08T08:40:42;18.0;;;16.0;;
45382;SDS011;42455;51.660;5.824;2023-09-08T08:45:48;17.0;;;15.0;;
45382;SDS011;42455;51.660;5.824;2023-09-08T08:50:54;18.0;;;16.0;;
45382;SDS011;42455;51.660;5.824;2023-09-08T08:56:01;18.0;;;16.0;;
45382;SDS011;42455;51.660;5.824;2023-09-08T09:01:07;18.0;;;16.0;;
45382;SDS011;42455;51.660;5.824;2023-09-08T09:06:12;17.0;;;15.0;;
45382;SDS011;42455;51.660;5.824;2023-09-08T09:11:18;16.0;;;15.0;;
45382;SDS011;42455;51.660;5.824;2023-09-08T09:16:25;17.0;;;15.0;;
45382;SDS011;42455;51.660;5.824;2023-09-08T09:21:45;15.0;;;14.0;;
45382;SDS011;42455;51.660;5.824;2023-09-08T09:26:38;17.0;;;16.0;;
45382;SDS011;42455;51.660;5.824;2023-09-08T09:31:50;16.0;;;15.0;;
45382;SDS011;42455;51.660;5.824;2023-09-08T09:36:50;13.0;;;12.0;;
45382;SDS011;42455;51.660;5.824;2023-09-08T09:41:56;15.0;;;13.0;;
45382;SDS011;42455;51.660;5.824;2023-09-08T09:47:02;15.0;;;14.0;;
45382;SDS011;42455;51.660;5.824;2023-09-08T09:52:08;14.0;;;13.0;;
45382;SDS011;42455;51.660;5.824;2023-09-08T09:57:14;12.0;;;11.0;;
45382;SDS011;42455;51.660;5.824;2023-09-08T10:02:21;12.0;;;11.0;;
45382;SDS011;42455;51.660;5.824;2023-09-08T10:07:27;12.0;;;11.0;;
45382;SDS011;42455;51.660;5.824;2023-09-08T10:12:38;13.0;;;12.0;;
45382;SDS011;42455;51.660;5.824;2023-09-08T10:17:40;12.0;;;11.0;;
45382;SDS011;42455;51.660;5.824;2023-09-08T10:22:45;15.0;;;13.0;;
45382;SDS011;42455;51.660;5.824;2023-09-08T10:27:52;15.0;;;13.0;;
45382;SDS011;42455;51.660;5.824;2023-09-08T10:32:58;13.0;;;12.0;;
45382;SDS011;42455;51.660;5.824;2023-09-08T10:38:23;13.0;;;12.0;;
45382;SDS011;42455;51.660;5.824;2023-09-08T10:43:13;12.0;;;11.0;;
45382;SDS011;42455;51.660;5.824;2023-09-08T10:48:15;13.0;;;12.0;;
45382;SDS011;42455;51.660;5.824;2023-09-08T10:53:22;13.0;;;11.0;;
45382;SDS011;42455;51.660;5.824;2023-09-08T10:58:31;13.0;;;12.0;;
45382;SDS011;42455;51.660;5.824;2023-09-08T11:03:45;12.0;;;11.0;;
45382;SDS011;42455;51.660;5.824;2023-09-08T11:08:41;12.0;;;11.0;;
45382;SDS011;42455;51.660;5.824;2023-09-08T11:13:47;11.0;;;10.0;;
45382;SDS011;42455;51.660;5.824;2023-09-08T11:18:53;11.0;;;10.0;;
45382;SDS011;42455;51.660;5.824;2023-09-08T11:23:59;9.0;;;8.0;;
45382;SDS011;42455;51.660;5.824;2023-09-08T11:29:05;9.0;;;8.0;;
45382;SDS011;42455;51.660;5.824;2023-09-08T11:34:11;8.0;;;7.0;;
45382;SDS011;42455;51.660;5.824;2023-09-08T11:39:18;7.0;;;6.0;;
45382;SDS011;42455;51.660;5.824;2023-09-08T11:44:24;8.0;;;7.0;;
45382;SDS011;42455;51.660;5.824;2023-09-08T11:49:32;8.0;;;7.0;;
45382;SDS011;42455;51.660;5.824;2023-09-08T11:54:36;8.0;;;7.0;;
45382;SDS011;42455;51.660;5.824;2023-09-08T11:59:42;8.0;;;7.0;;
45382;SDS011;42455;51.660;5.824;2023-09-08T12:04:49;7.0;;;6.0;;
45382;SDS011;42455;51.660;5.824;2023-09-08T12:09:55;7.0;;;6.0;;
45382;SDS011;42455;51.660;5.824;2023-09-08T12:15:01;7.0;;;6.0;;
45382;SDS011;42455;51.660;5.824;2023-09-08T12:20:13;8.0;;;7.0;;
45382;SDS011;42455;51.660;5.824;2023-09-08T12:25:14;7.0;;;6.0;;
45382;SDS011;42455;51.660;5.824;2023-09-08T12:30:19;7.0;;;6.0;;
45382;SDS011;42455;51.660;5.824;2023-09-08T12:35:25;7.0;;;6.0;;
45382;SDS011;42455;51.660;5.824;2023-09-08T12:40:34;7.0;;;6.0;;
45382;SDS011;42455;51.660;5.824;2023-09-08T12:45:37;7.0;;;6.0;;
45382;SDS011;42455;51.660;5.824;2023-09-08T12:50:44;7.0;;;6.0;;
45382;SDS011;42455;51.660;5.824;2023-09-08T13:00:56;5.0;;;5.0;;
45382;SDS011;42455;51.660;5.824;2023-09-08T13:06:01;6.0;;;5.0;;
45382;SDS011;42455;51.660;5.824;2023-09-08T13:11:07;6.0;;;5.0;;
45382;SDS011;42455;51.660;5.824;2023-09-08T13:16:14;6.0;;;5.0;;
45382;SDS011;42455;51.660;5.824;2023-09-08T13:21:20;5.0;;;5.0;;
45382;SDS011;42455;51.660;5.824;2023-09-08T13:26:26;5.0;;;5.0;;
45382;SDS011;42455;51.660;5.824;2023-09-08T13:31:32;5.0;;;5.0;;
45382;SDS011;42455;51.660;5.824;2023-09-08T13:36:38;5.0;;;5.0;;
45382;SDS011;42455;51.660;5.824;2023-09-08T13:41:47;6.0;;;5.0;;
45382;SDS011;42455;51.660;5.824;2023-09-08T13:46:51;5.0;;;5.0;;
45382;SDS011;42455;51.660;5.824;2023-09-08T13:51:57;6.0;;;5.0;;
45382;SDS011;42455;51.660;5.824;2023-09-08T13:57:03;6.0;;;5.0;;
45382;SDS011;42455;51.660;5.824;2023-09-08T14:02:10;5.0;;;5.0;;
45382;SDS011;42455;51.660;5.824;2023-09-08T14:07:16;5.0;;;5.0;;
45382;SDS011;42455;51.660;5.824;2023-09-08T14:12:23;6.0;;;5.0;;
45382;SDS011;42455;51.660;5.824;2023-09-08T14:17:28;5.0;;;5.0;;
45382;SDS011;42455;51.660;5.824;2023-09-08T14:22:34;5.5;;;5.0;;
45382;SDS011;42455;51.660;5.824;2023-09-08T14:27:41;5.0;;;5.0;;
45382;SDS011;42455;51.660;5.824;2023-09-08T14:32:47;5.0;;;5.0;;
45382;SDS011;42455;51.660;5.824;2023-09-08T14:37:53;5.0;;;5.0;;
45382;SDS011;42455;51.660;5.824;2023-09-08T14:42:59;5.0;;;5.0;;
45382;SDS011;42455;51.660;5.824;2023-09-08T14:48:05;7.0;;;5.0;;
45382;SDS011;42455;51.660;5.824;2023-09-08T14:53:12;6.0;;;5.0;;
45382;SDS011;42455;51.660;5.824;2023-09-08T14:58:18;5.0;;;5.0;;
45382;SDS011;42455;51.660;5.824;2023-09-08T15:03:24;6.0;;;5.0;;
45382;SDS011;42455;51.660;5.824;2023-09-08T15:08:30;6.5;;;5.0;;
45382;SDS011;42455;51.660;5.824;2023-09-08T15:13:37;5.0;;;5.0;;
45382;SDS011;42455;51.660;5.824;2023-09-08T15:18:43;5.0;;;5.0;;
45382;SDS011;42455;51.660;5.824;2023-09-08T15:23:49;5.0;;;5.0;;
45382;SDS011;42455;51.660;5.824;2023-09-08T15:28:55;6.0;;;5.0;;
45382;SDS011;42455;51.660;5.824;2023-09-08T15:34:01;6.0;;;5.0;;
45382;SDS011;42455;51.660;5.824;2023-09-08T15:39:08;6.0;;;5.0;;
45382;SDS011;42455;51.660;5.824;2023-09-08T15:44:14;6.0;;;5.0;;
45382;SDS011;42455;51.660;5.824;2023-09-08T15:49:20;6.0;;;5.0;;
45382;SDS011;42455;51.660;5.824;2023-09-08T15:54:26;6.0;;;5.5;;
45382;SDS011;42455;51.660;5.824;2023-09-08T15:59:32;6.0;;;5.5;;
45382;SDS011;42455;51.660;5.824;2023-09-08T16:04:39;8.0;;;6.0;;
45382;SDS011;42455;51.660;5.824;2023-09-08T16:09:45;7.0;;;6.0;;
45382;SDS011;42455;51.660;5.824;2023-09-08T16:14:51;6.0;;;5.0;;
45382;SDS011;42455;51.660;5.824;2023-09-08T16:19:57;7.0;;;6.0;;
45382;SDS011;42455;51.660;5.824;2023-09-08T16:25:03;6.0;;;6.0;;
45382;SDS011;42455;51.660;5.824;2023-09-08T16:30:10;7.0;;;6.0;;
45382;SDS011;42455;51.660;5.824;2023-09-08T16:35:16;6.0;;;6.0;;
45382;SDS011;42455;51.660;5.824;2023-09-08T16:40:22;7.0;;;6.0;;
45382;SDS011;42455;51.660;5.824;2023-09-08T16:45:28;7.0;;;6.0;;
45382;SDS011;42455;51.660;5.824;2023-09-08T16:50:35;7.0;;;6.0;;
45382;SDS011;42455;51.660;5.824;2023-09-08T16:55:41;7.0;;;6.0;;
45382;SDS011;42455;51.660;5.824;2023-09-08T17:00:47;8.0;;;7.0;;
45382;SDS011;42455;51.660;5.824;2023-09-08T17:05:53;7.0;;;6.0;;
45382;SDS011;42455;51.660;5.824;2023-09-08T17:11:02;8.0;;;7.0;;
45382;SDS011;42455;51.660;5.824;2023-09-08T17:16:06;8.0;;;7.0;;
45382;SDS011;42455;51.660;5.824;2023-09-08T17:21:12;8.0;;;7.0;;
45382;SDS011;42455;51.660;5.824;2023-09-08T17:26:18;8.0;;;7.0;;
45382;SDS011;42455;51.660;5.824;2023-09-08T17:31:24;8.0;;;7.0;;
45382;SDS011;42455;51.660;5.824;2023-09-08T17:36:30;8.0;;;7.0;;
45382;SDS011;42455;51.660;5.824;2023-09-08T17:41:37;8.0;;;7.0;;
45382;SDS011;42455;51.660;5.824;2023-09-08T17:46:43;8.0;;;7.0;;
45382;SDS011;42455;51.660;5.824;2023-09-08T17:51:49;8.0;;;7.0;;
45382;SDS011;42455;51.660;5.824;2023-09-08T17:56:57;8.0;;;7.0;;
45382;SDS011;42455;51.660;5.824;2023-09-08T18:02:01;9.0;;;8.0;;
45382;SDS011;42455;51.660;5.824;2023-09-08T18:07:08;10.0;;;9.0;;
45382;SDS011;42455;51.660;5.824;2023-09-08T18:12:14;10.0;;;9.0;;
45382;SDS011;42455;51.660;5.824;2023-09-08T18:17:20;10.0;;;9.0;;
45382;SDS011;42455;51.660;5.824;2023-09-08T18:22:26;12.0;;;11.0;;
45382;SDS011;42455;51.660;5.824;2023-09-08T18:27:33;12.5;;;11.0;;
45382;SDS011;42455;51.660;5.824;2023-09-08T18:32:39;13.0;;;12.0;;
45382;SDS011;42455;51.660;5.824;2023-09-08T18:37:44;15.0;;;12.0;;
45382;SDS011;42455;51.660;5.824;2023-09-08T18:42:50;15.0;;;12.0;;
45382;SDS011;42455;51.660;5.824;2023-09-08T18:47:56;11.0;;;10.0;;
45382;SDS011;42455;51.660;5.824;2023-09-08T18:53:03;12.0;;;11.0;;
45382;SDS011;42455;51.660;5.824;2023-09-08T18:58:09;13.0;;;11.0;;
45382;SDS011;42455;51.660;5.824;2023-09-08T19:03:15;12.5;;;11.0;;
45382;SDS011;42455;51.660;5.824;2023-09-08T19:08:21;12.0;;;11.0;;
45382;SDS011;42455;51.660;5.824;2023-09-08T19:13:28;14.0;;;12.0;;
45382;SDS011;42455;51.660;5.824;2023-09-08T19:18:34;14.0;;;13.0;;
45382;SDS011;42455;51.660;5.824;2023-09-08T19:23:40;13.0;;;12.0;;
45382;SDS011;42455;51.660;5.824;2023-09-08T19:28:46;13.0;;;12.0;;
45382;SDS011;42455;51.660;5.824;2023-09-08T19:33:52;13.0;;;12.0;;
45382;SDS011;42455;51.660;5.824;2023-09-08T19:38:59;13.5;;;12.0;;
45382;SDS011;42455;51.660;5.824;2023-09-08T19:44:05;13.0;;;11.0;;
45382;SDS011;42455;51.660;5.824;2023-09-08T19:49:11;14.0;;;12.0;;
45382;SDS011;42455;51.660;5.824;2023-09-08T19:54:17;13.5;;;12.0;;
45382;SDS011;42455;51.660;5.824;2023-09-08T19:59:23;13.5;;;12.0;;
45382;SDS011;42455;51.660;5.824;2023-09-08T20:04:30;15.0;;;14.0;;
45382;SDS011;42455;51.660;5.824;2023-09-08T20:09:36;15.0;;;14.0;;
45382;SDS011;42455;51.660;5.824;2023-09-08T20:14:42;15.0;;;14.0;;
45382;SDS011;42455;51.660;5.824;2023-09-08T20:19:48;17.0;;;16.0;;
45382;SDS011;42455;51.660;5.824;2023-09-08T20:24:55;17.0;;;16.0;;
45382;SDS011;42455;51.660;5.824;2023-09-08T20:30:01;17.0;;;15.0;;
45382;SDS011;42455;51.660;5.824;2023-09-08T20:35:07;17.0;;;15.0;;
45382;SDS011;42455;51.660;5.824;2023-09-08T20:40:13;20.0;;;18.0;;
45382;SDS011;42455;51.660;5.824;2023-09-08T20:45:19;19.0;;;17.5;;
45382;SDS011;42455;51.660;5.824;2023-09-08T20:50:26;19.0;;;17.5;;
45382;SDS011;42455;51.660;5.824;2023-09-08T20:55:32;18.0;;;16.0;;
45382;SDS011;42455;51.660;5.824;2023-09-08T21:00:38;18.0;;;16.0;;
45382;SDS011;42455;51.660;5.824;2023-09-08T21:05:44;17.0;;;16.0;;
45382;SDS011;42455;51.660;5.824;2023-09-08T21:10:54;19.5;;;18.0;;
45382;SDS011;42455;51.660;5.824;2023-09-08T21:15:57;21.0;;;19.0;;
45382;SDS011;42455;51.660;5.824;2023-09-08T21:21:03;18.0;;;17.0;;
45382;SDS011;42455;51.660;5.824;2023-09-08T21:26:09;19.5;;;18.0;;
45382;SDS011;42455;51.660;5.824;2023-09-08T21:31:15;18.0;;;17.0;;
45382;SDS011;42455;51.660;5.824;2023-09-08T21:36:21;18.0;;;17.0;;
45382;SDS011;42455;51.660;5.824;2023-09-08T21:41:28;18.0;;;16.0;;
45382;SDS011;42455;51.660;5.824;2023-09-08T21:46:34;19.0;;;17.0;;
45382;SDS011;42455;51.660;5.824;2023-09-08T21:51:40;19.0;;;17.0;;
45382;SDS011;42455;51.660;5.824;2023-09-08T21:56:46;18.0;;;17.0;;
45382;SDS011;42455;51.660;5.824;2023-09-08T22:01:53;20.0;;;18.0;;
45382;SDS011;42455;51.660;5.824;2023-09-08T22:06:59;19.0;;;18.0;;
45382;SDS011;42455;51.660;5.824;2023-09-08T22:12:05;20.0;;;18.0;;
45382;SDS011;42455;51.660;5.824;2023-09-08T22:17:11;20.0;;;18.0;;
45382;SDS011;42455;51.660;5.824;2023-09-08T22:22:17;20.0;;;19.0;;
45382;SDS011;42455;51.660;5.824;2023-09-08T22:27:24;19.0;;;17.0;;
45382;SDS011;42455;51.660;5.824;2023-09-08T22:32:30;19.0;;;17.0;;
45382;SDS011;42455;51.660;5.824;2023-09-08T22:37:36;20.0;;;18.0;;
45382;SDS011;42455;51.660;5.824;2023-09-08T22:42:42;19.0;;;17.5;;
45382;SDS011;42455;51.660;5.824;2023-09-08T22:47:48;20.0;;;18.0;;
45382;SDS011;42455;51.660;5.824;2023-09-08T22:52:55;19.0;;;17.0;;
45382;SDS011;42455;51.660;5.824;2023-09-08T22:58:01;21.0;;;19.0;;
45382;SDS011;42455;51.660;5.824;2023-09-08T23:03:07;22.0;;;20.0;;
45382;SDS011;42455;51.660;5.824;2023-09-08T23:08:13;22.0;;;20.0;;
45382;SDS011;42455;51.660;5.824;2023-09-08T23:13:19;24.0;;;22.0;;
45382;SDS011;42455;51.660;5.824;2023-09-08T23:18:26;25.0;;;23.0;;
45382;SDS011;42455;51.660;5.824;2023-09-08T23:23:32;23.0;;;21.0;;
45382;SDS011;42455;51.660;5.824;2023-09-08T23:28:38;22.0;;;20.0;;
45382;SDS011;42455;51.660;5.824;2023-09-08T23:33:44;23.0;;;21.0;;
45382;SDS011;42455;51.660;5.824;2023-09-08T23:38:50;22.0;;;20.0;;
45382;SDS011;42455;51.660;5.824;2023-09-08T23:43:57;24.0;;;22.0;;
45382;SDS011;42455;51.660;5.824;2023-09-08T23:49:03;26.0;;;23.0;;
45382;SDS011;42455;51.660;5.824;2023-09-08T23:54:09;24.0;;;22.0;;
45382;SDS011;42455;51.660;5.824;2023-09-08T23:59:15;25.0;;;23.0;;
